createdAt,value
2018-05-11T00:00:26.961Z,94413.84
2018-05-11T00:02:55.381Z,94425.34
2018-05-11T00:05:23.833Z,94424.39
2018-05-11T00:07:52.227Z,94423.27
2018-05-11T00:10:20.621Z,94431.46
2018-05-11T00:12:49.080Z,94436.17
2018-05-11T00:15:17.523Z,94434.35
2018-05-11T00:17:45.919Z,94441.33
2018-05-11T00:20:14.341Z,94443.55
2018-05-11T00:22:42.724Z,94448.68
2018-05-11T00:25:11.163Z,94443.04
2018-05-11T00:27:39.568Z,94446.45
2018-05-11T00:30:08.003Z,94444.73
2018-05-11T00:32:36.437Z,94439.51
2018-05-11T00:35:04.871Z,94437.41
2018-05-11T00:37:33.287Z,94434.39
2018-05-11T00:40:01.728Z,94440.80
2018-05-11T00:42:30.205Z,94430.08
2018-05-11T00:44:58.631Z,94435.44
2018-05-11T00:47:27.031Z,94442.00
2018-05-11T00:49:55.478Z,94442.13
2018-05-11T00:52:23.891Z,94431.38
2018-05-11T00:54:52.335Z,94448.41
2018-05-11T00:57:20.785Z,94451.69
2018-05-11T00:59:49.236Z,94454.17
2018-05-11T01:02:17.628Z,94452.31
2018-05-11T01:04:46.047Z,94445.25
2018-05-11T01:07:14.514Z,94448.94
2018-05-11T01:09:42.987Z,94438.34
2018-05-11T01:12:11.486Z,94455.23
2018-05-11T01:14:39.929Z,94454.58
2018-05-11T01:17:08.350Z,94455.34
2018-05-11T01:19:36.831Z,94456.39
2018-05-11T01:22:05.320Z,94457.96
2018-05-11T01:24:33.735Z,94458.88
2018-05-11T01:27:02.207Z,94452.99
2018-05-11T01:29:30.597Z,94449.83
2018-05-11T01:31:59.033Z,94450.86
2018-05-11T01:34:27.471Z,94446.16
2018-05-11T01:36:55.998Z,94449.81
2018-05-11T01:39:24.431Z,94447.49
2018-05-11T01:41:52.890Z,94453.54
2018-05-11T01:44:21.340Z,94446.44
2018-05-11T01:46:49.797Z,94433.05
2018-05-11T01:49:18.199Z,94443.80
2018-05-11T01:51:46.707Z,94443.27
2018-05-11T01:54:15.108Z,94441.70
2018-05-11T01:56:43.523Z,94442.23
2018-05-11T01:59:11.979Z,94441.28
2018-05-11T02:01:40.421Z,94437.27
2018-05-11T02:04:08.843Z,94426.14
2018-05-11T02:06:37.329Z,94447.36
2018-05-11T02:09:05.806Z,94444.86
2018-05-11T02:11:34.244Z,94444.58
2018-05-11T02:14:02.640Z,94449.81
2018-05-11T02:16:31.063Z,94449.94
2018-05-11T02:18:59.517Z,94450.11
2018-05-11T02:21:27.975Z,94449.59
2018-05-11T02:23:56.437Z,94443.25
2018-05-11T02:26:24.914Z,94443.53
2018-05-11T02:28:53.363Z,94442.66
2018-05-11T02:31:21.887Z,94452.06
2018-05-11T02:33:50.289Z,94454.67
2018-05-11T02:36:18.728Z,94457.30
2018-05-11T02:38:47.286Z,94456.75
2018-05-11T02:41:15.891Z,94458.61
2018-05-11T02:43:44.475Z,94459.50
2018-05-11T02:46:12.919Z,94468.19
2018-05-11T02:48:41.359Z,94463.06
2018-05-11T02:51:09.903Z,94472.88
2018-05-11T02:53:38.295Z,94476.17
2018-05-11T02:56:06.752Z,94477.59
2018-05-11T02:58:35.219Z,94474.69
2018-05-11T03:01:03.615Z,94480.46
2018-05-11T03:03:32.058Z,94481.67
2018-05-11T03:06:00.446Z,94484.47
2018-05-11T03:08:28.875Z,94487.20
2018-05-11T03:10:57.321Z,94481.71
2018-05-11T03:13:25.747Z,94485.75
2018-05-11T03:15:54.201Z,94488.64
2018-05-11T03:18:22.659Z,94489.42
2018-05-11T03:20:51.040Z,94492.72
2018-05-11T03:23:19.478Z,94498.23
2018-05-11T03:25:47.901Z,94497.41
2018-05-11T03:28:16.312Z,94508.01
2018-05-11T03:30:44.773Z,94508.78
2018-05-11T03:33:13.177Z,94519.69
2018-05-11T03:35:41.580Z,94520.87
2018-05-11T03:38:09.983Z,94524.44
2018-05-11T03:40:38.397Z,94530.36
2018-05-11T03:43:06.834Z,94506.36
2018-05-11T03:45:35.267Z,94534.72
2018-05-11T03:48:03.723Z,94536.13
2018-05-11T03:50:32.224Z,94547.55
2018-05-11T03:53:00.647Z,94547.55
2018-05-11T03:55:29.071Z,94542.33
2018-05-11T03:57:57.521Z,94544.83
2018-05-11T04:00:25.922Z,94552.03
2018-05-11T04:03:06.442Z,94554.64
2018-05-11T04:05:46.574Z,94563.18
2018-05-11T04:08:27.806Z,94561.34
2018-05-11T04:10:56.190Z,94567.76
2018-05-11T04:13:24.615Z,94563.31
2018-05-11T04:15:53.065Z,94562.64
2018-05-11T04:18:21.604Z,94560.16
2018-05-11T04:20:50.066Z,94568.55
2018-05-11T04:23:18.503Z,94574.02
2018-05-11T04:25:46.899Z,94579.66
2018-05-11T04:28:15.420Z,94573.09
2018-05-11T04:30:43.836Z,94575.67
2018-05-11T04:33:12.231Z,94576.89
2018-05-11T04:35:40.669Z,94576.89
2018-05-11T04:38:09.074Z,94579.23
2018-05-11T04:40:37.532Z,94583.25
2018-05-11T04:43:05.924Z,94586.67
2018-05-11T04:45:34.363Z,94592.45
2018-05-11T04:48:02.841Z,94594.52
2018-05-11T04:50:31.247Z,94591.19
2018-05-11T04:52:59.648Z,94590.08
2018-05-11T04:55:28.099Z,94560.81
2018-05-11T04:57:56.527Z,94600.11
2018-05-11T05:00:25.083Z,94602.16
2018-05-11T05:02:53.548Z,94603.27
2018-05-11T05:05:21.998Z,94607.66
2018-05-11T05:07:50.409Z,94607.21
2018-05-11T05:10:18.866Z,94612.84
2018-05-11T05:12:47.310Z,94614.38
2018-05-11T05:15:15.780Z,94617.92
2018-05-11T05:17:44.322Z,94617.19
2018-05-11T05:20:12.731Z,94615.16
2018-05-11T05:22:41.240Z,94614.89
2018-05-11T05:25:09.652Z,94616.81
2018-05-11T05:27:38.087Z,94614.25
2018-05-11T05:30:06.462Z,94620.70
2018-05-11T05:32:34.931Z,94619.11
2018-05-11T05:35:03.399Z,94625.08
2018-05-11T05:37:31.895Z,94619.46
2018-05-11T05:40:00.312Z,94613.22
2018-05-11T05:42:28.752Z,94588.17
2018-05-11T05:44:57.140Z,94613.92
2018-05-11T05:47:25.552Z,94610.18
2018-05-11T05:49:53.956Z,94609.48
2018-05-11T05:52:22.356Z,94610.23
2018-05-11T05:54:50.781Z,94620.69
2018-05-11T05:57:19.178Z,94619.22
2018-05-11T05:59:47.643Z,94598.74
2018-05-11T06:02:16.093Z,94618.67
2018-05-11T06:04:44.651Z,94625.58
2018-05-11T06:07:13.074Z,94616.83
2018-05-11T06:09:41.563Z,94616.30
2018-05-11T06:12:10.139Z,94617.91
2018-05-11T06:14:38.571Z,94624.30
2018-05-11T06:17:07.049Z,94627.30
2018-05-11T06:19:35.447Z,94636.53
2018-05-11T06:22:03.917Z,94634.48
2018-05-11T06:24:32.342Z,94640.26
2018-05-11T06:27:00.826Z,94650.63
2018-05-11T06:29:29.210Z,94653.55
2018-05-11T06:31:57.672Z,94648.94
2018-05-11T06:34:26.067Z,94647.30
2018-05-11T06:36:54.551Z,94653.31
2018-05-11T06:39:23.040Z,94661.25
2018-05-11T06:41:51.615Z,94667.92
2018-05-11T06:44:20.068Z,94668.80
2018-05-11T06:46:48.536Z,94670.84
2018-05-11T06:49:17.002Z,94677.02
2018-05-11T06:51:45.431Z,94668.84
2018-05-11T06:54:13.880Z,94666.53
2018-05-11T06:56:42.377Z,94668.40
2018-05-11T06:59:10.840Z,94660.70
2018-05-11T07:01:39.227Z,94654.25
2018-05-11T07:04:07.712Z,94658.87
2018-05-11T07:06:36.250Z,94662.27
2018-05-11T07:09:04.703Z,94670.13
2018-05-11T07:11:33.124Z,94674.05
2018-05-11T07:14:01.570Z,94660.83
2018-05-11T07:16:30.023Z,94677.36
2018-05-11T07:18:58.455Z,94679.89
2018-05-11T07:21:26.919Z,94682.27
2018-05-11T07:23:55.392Z,94689.23
2018-05-11T07:26:23.821Z,94687.24
2018-05-11T07:28:52.264Z,94687.55
2018-05-11T07:31:20.661Z,94682.23
2018-05-11T07:33:49.095Z,94697.87
2018-05-11T07:36:17.476Z,94691.76
2018-05-11T07:38:45.919Z,94693.05
2018-05-11T07:41:14.462Z,94693.08
2018-05-11T07:43:42.895Z,94697.42
2018-05-11T07:46:11.357Z,94697.98
2018-05-11T07:48:39.777Z,94689.55
2018-05-11T07:51:08.175Z,94711.13
2018-05-11T07:53:36.638Z,94694.49
2018-05-11T07:56:05.060Z,94716.80
2018-05-11T07:58:33.504Z,94708.95
2018-05-11T08:01:01.969Z,94696.26
2018-05-11T08:03:30.367Z,94720.16
2018-05-11T08:05:58.747Z,94722.89
2018-05-11T08:08:27.130Z,94711.91
2018-05-11T08:10:55.569Z,94714.87
2018-05-11T08:13:24.025Z,94716.77
2018-05-11T08:15:52.452Z,94714.19
2018-05-11T08:18:20.845Z,94718.28
2018-05-11T08:20:49.509Z,94719.66
2018-05-11T08:23:17.909Z,94713.95
2018-05-11T08:25:46.319Z,94717.48
2018-05-11T08:28:14.788Z,94719.07
2018-05-11T08:30:43.216Z,94715.34
2018-05-11T08:33:11.644Z,94718.16
2018-05-11T08:35:40.092Z,94713.58
2018-05-11T08:38:08.503Z,94712.85
2018-05-11T08:40:36.918Z,94711.97
2018-05-11T08:43:05.419Z,94704.69
2018-05-11T08:45:33.841Z,94708.88
2018-05-11T08:48:02.298Z,94712.46
2018-05-11T08:50:30.732Z,94710.61
2018-05-11T08:52:59.131Z,94711.67
2018-05-11T08:55:27.558Z,94708.48
2018-05-11T08:57:56.031Z,94708.92
2018-05-11T09:00:24.425Z,94705.76
2018-05-11T09:02:52.927Z,94702.34
2018-05-11T09:05:21.330Z,94708.59
2018-05-11T09:07:49.721Z,94697.70
2018-05-11T09:10:18.143Z,94702.56
2018-05-11T09:12:46.536Z,94698.81
2018-05-11T09:15:15.011Z,94700.09
2018-05-11T09:17:43.470Z,94697.40
2018-05-11T09:20:11.939Z,94692.52
2018-05-11T09:22:40.342Z,94693.53
2018-05-11T09:25:08.818Z,94695.30
2018-05-11T09:27:37.224Z,94687.09
2018-05-11T09:30:05.660Z,94696.09
2018-05-11T09:32:34.124Z,94689.83
2018-05-11T09:35:02.543Z,94700.34
2018-05-11T09:37:31.097Z,94695.80
2018-05-11T09:39:59.489Z,94700.57
2018-05-11T09:42:27.958Z,94704.30
2018-05-11T09:44:56.368Z,94703.36
2018-05-11T09:47:24.829Z,94702.22
2018-05-11T09:49:53.244Z,94686.42
2018-05-11T09:52:21.744Z,94700.38
2018-05-11T09:54:50.202Z,94703.00
2018-05-11T09:57:18.592Z,94708.88
2018-05-11T09:59:47.010Z,94708.27
2018-05-11T10:02:15.500Z,94705.25
2018-05-11T10:04:43.904Z,94705.53
2018-05-11T10:07:12.403Z,94707.39
2018-05-11T10:09:40.854Z,94703.55
2018-05-11T10:12:09.313Z,94702.55
2018-05-11T10:14:37.718Z,94703.39
2018-05-11T10:17:06.318Z,94696.23
2018-05-11T10:19:34.719Z,94697.29
2018-05-11T10:22:03.084Z,94680.27
2018-05-11T10:24:31.882Z,94706.13
2018-05-11T10:27:00.283Z,94699.56
2018-05-11T10:29:28.718Z,94709.27
2018-05-11T10:31:57.608Z,94707.67
2018-05-11T10:34:26.311Z,94713.09
2018-05-11T10:36:54.644Z,94708.66
2018-05-11T10:39:23.368Z,94698.28
2018-05-11T10:41:51.775Z,94694.72
2018-05-11T10:44:20.159Z,94689.37
2018-05-11T10:46:48.940Z,94663.75
2018-05-11T10:49:17.345Z,94687.31
2018-05-11T10:51:45.814Z,94689.47
2018-05-11T10:54:14.562Z,94682.27
2018-05-11T10:56:42.978Z,94695.56
2018-05-11T10:59:11.387Z,94698.17
2018-05-11T11:01:40.143Z,94693.15
2018-05-11T11:04:08.573Z,94697.53
2018-05-11T11:06:36.978Z,94703.05
2018-05-11T11:09:06.467Z,94693.86
2018-05-11T11:11:34.847Z,94685.97
2018-05-11T11:14:03.252Z,94692.87
2018-05-11T11:16:31.783Z,94682.57
2018-05-11T11:19:00.181Z,94678.89
2018-05-11T11:21:28.576Z,94673.19
2018-05-11T11:23:57.299Z,94655.66
2018-05-11T11:26:25.836Z,94661.28
2018-05-11T11:28:54.229Z,94652.58
2018-05-11T11:31:23.339Z,94654.14
2018-05-11T11:33:51.722Z,94658.25
2018-05-11T11:36:20.113Z,94649.63
2018-05-11T11:38:48.677Z,94649.73
2018-05-11T11:41:17.077Z,94650.91
2018-05-11T11:43:45.536Z,94645.42
2018-05-11T11:46:14.251Z,94655.19
2018-05-11T11:48:42.640Z,94647.25
2018-05-11T11:51:11.081Z,94649.27
2018-05-11T11:53:39.542Z,94637.38
2018-05-11T11:56:07.923Z,94631.33
2018-05-11T11:58:36.319Z,94625.23
2018-05-11T12:01:04.784Z,94633.11
2018-05-11T12:03:33.198Z,94635.51
2018-05-11T12:06:01.612Z,94648.20
2018-05-11T12:08:30.364Z,94637.03
2018-05-11T12:10:58.755Z,94648.15
2018-05-11T12:13:27.176Z,94643.72
2018-05-11T12:15:55.799Z,94648.13
2018-05-11T12:18:24.187Z,94641.81
2018-05-11T12:20:52.600Z,94625.11
2018-05-11T12:23:21.297Z,94650.48
2018-05-11T12:25:49.714Z,94654.25
2018-05-11T12:28:18.102Z,94667.16
2018-05-11T12:30:47.002Z,94684.67
2018-05-11T12:33:15.466Z,94704.69
2018-05-11T12:35:43.888Z,94723.83
2018-05-11T12:38:12.832Z,94737.00
2018-05-11T12:40:41.203Z,94742.68
2018-05-11T12:43:09.638Z,94757.23
2018-05-11T12:45:38.366Z,94766.48
2018-05-11T12:48:06.795Z,94772.20
2018-05-11T12:50:35.196Z,94769.30
2018-05-11T12:53:03.689Z,94774.82
2018-05-11T12:55:32.085Z,94776.52
2018-05-11T12:58:00.619Z,94767.05
2018-05-11T13:00:29.434Z,94755.50
2018-05-11T13:02:58.151Z,94759.45
2018-05-11T13:05:26.711Z,94755.75
2018-05-11T13:07:55.559Z,94763.72
2018-05-11T13:10:23.991Z,94769.41
2018-05-11T13:12:52.374Z,94766.84
2018-05-11T13:15:21.023Z,94774.00
2018-05-11T13:17:49.424Z,94766.16
2018-05-11T13:20:17.796Z,94777.70
2018-05-11T13:22:46.880Z,94758.12
2018-05-11T13:25:15.286Z,94786.78
2018-05-11T13:27:43.664Z,94789.11
2018-05-11T13:30:12.842Z,94785.61
2018-05-11T13:32:41.236Z,94788.84
2018-05-11T13:35:09.627Z,94783.73
2018-05-11T13:37:38.371Z,94775.89
2018-05-11T13:40:06.783Z,94766.08
2018-05-11T13:42:35.188Z,94755.80
2018-05-11T13:45:04.044Z,94762.48
2018-05-11T13:47:32.471Z,94757.80
2018-05-11T13:50:00.869Z,94758.89
2018-05-11T13:52:29.706Z,94755.77
2018-05-11T13:54:58.118Z,94756.87
2018-05-11T13:57:26.522Z,94754.84
2018-05-11T13:59:54.932Z,94763.50
2018-05-11T14:02:23.352Z,94770.20
2018-05-11T14:04:51.735Z,94764.56
2018-05-11T14:07:20.446Z,94764.67
2018-05-11T14:09:48.819Z,94765.70
2018-05-11T14:12:17.195Z,94765.37
2018-05-11T14:14:46.239Z,94772.47
2018-05-11T14:17:14.622Z,94775.02
2018-05-11T14:19:43.063Z,94770.73
2018-05-11T14:22:11.871Z,94772.07
2018-05-11T14:24:40.508Z,94772.36
2018-05-11T14:27:08.957Z,94752.79
2018-05-11T14:29:37.396Z,94776.52
2018-05-11T14:32:05.804Z,94778.72
2018-05-11T14:34:34.248Z,94754.73
2018-05-11T14:37:02.891Z,94770.13
2018-05-11T14:39:31.270Z,94763.87
2018-05-11T14:41:59.675Z,94766.59
2018-05-11T14:44:28.315Z,94754.78
2018-05-11T14:46:56.709Z,94761.50
2018-05-11T14:49:25.091Z,94763.48
2018-05-11T14:51:53.511Z,94748.73
2018-05-11T14:54:21.969Z,94771.55
2018-05-11T14:56:50.358Z,94777.63
2018-05-11T14:59:19.000Z,94767.69
2018-05-11T15:01:47.395Z,94765.81
2018-05-11T15:04:15.868Z,94757.11
2018-05-11T15:06:44.782Z,94762.86
2018-05-11T15:09:13.171Z,94755.16
2018-05-11T15:11:41.575Z,94760.25
2018-05-11T15:14:10.411Z,94760.14
2018-05-11T15:16:38.815Z,94755.36
2018-05-11T15:19:07.240Z,94758.43
2018-05-11T15:21:35.938Z,94760.25
2018-05-11T15:24:04.360Z,94755.44
2018-05-11T15:26:32.762Z,94752.26
2018-05-11T15:29:01.200Z,94751.17
2018-05-11T15:31:29.606Z,94750.47
2018-05-11T15:33:58.010Z,94760.09
2018-05-11T15:36:26.763Z,94758.53
2018-05-11T15:38:55.182Z,94759.20
2018-05-11T15:41:23.666Z,94761.10
2018-05-11T15:43:52.403Z,94767.99
2018-05-11T15:46:20.792Z,94764.80
2018-05-11T15:48:49.232Z,94760.66
2018-05-11T15:51:18.007Z,94759.88
2018-05-11T15:53:47.321Z,94757.05
2018-05-11T15:56:16.192Z,94758.63
2018-05-11T15:58:45.418Z,94757.75
2018-05-11T16:01:13.936Z,94753.11
2018-05-11T16:03:42.321Z,94741.58
2018-05-11T16:06:12.865Z,94753.57
2018-05-11T16:08:41.283Z,94756.86
2018-05-11T16:11:09.717Z,94769.58
2018-05-11T16:13:38.140Z,94768.03
2018-05-11T16:16:06.597Z,94765.89
2018-05-11T16:18:34.983Z,94766.45
2018-05-11T16:21:03.703Z,94758.46
2018-05-11T16:23:32.086Z,94755.08
2018-05-11T16:26:00.440Z,94740.77
2018-05-11T16:28:29.275Z,94760.64
2018-05-11T16:30:57.694Z,94755.92
2018-05-11T16:33:26.083Z,94762.27
2018-05-11T16:35:54.710Z,94757.80
2018-05-11T16:38:23.103Z,94758.64
2018-05-11T16:40:51.491Z,94739.95
2018-05-11T16:43:20.162Z,94761.50
2018-05-11T16:45:48.591Z,94760.52
2018-05-11T16:48:16.983Z,94761.09
2018-05-11T16:50:45.815Z,94762.80
2018-05-11T16:53:14.271Z,94758.78
2018-05-11T16:55:42.659Z,94763.78
2018-05-11T16:58:11.259Z,94771.55
2018-05-11T17:00:39.649Z,94772.87
2018-05-11T17:03:08.006Z,94764.72
2018-05-11T17:05:36.809Z,94762.77
2018-05-11T17:08:05.300Z,94760.08
2018-05-11T17:10:33.662Z,94754.66
2018-05-11T17:13:02.359Z,94761.91
2018-05-11T17:15:30.890Z,94750.95
2018-05-11T17:17:59.297Z,94747.24
2018-05-11T17:20:28.026Z,94756.20
2018-05-11T17:22:56.490Z,94747.91
2018-05-11T17:25:24.906Z,94763.08
2018-05-11T17:27:53.346Z,94761.20
2018-05-11T17:30:21.755Z,94759.05
2018-05-11T17:32:50.239Z,94751.94
2018-05-11T17:35:18.944Z,94756.53
2018-05-11T17:37:47.373Z,94757.98
2018-05-11T17:40:15.784Z,94762.06
2018-05-11T17:42:44.265Z,94762.03
2018-05-11T17:45:12.713Z,94762.45
2018-05-11T17:47:41.135Z,94767.58
2018-05-11T17:50:09.583Z,94775.47
2018-05-11T17:52:37.968Z,94779.80
2018-05-11T17:55:06.418Z,94784.94
2018-05-11T17:57:34.863Z,94791.22
2018-05-11T18:00:03.315Z,94794.23
2018-05-11T18:02:31.795Z,94797.93
2018-05-11T18:05:00.275Z,94794.75
2018-05-11T18:07:28.683Z,94792.23
2018-05-11T18:09:57.115Z,94794.70
2018-05-11T18:12:25.590Z,94792.86
2018-05-11T18:14:53.976Z,94801.53
2018-05-11T18:17:22.405Z,94799.14
2018-05-11T18:19:50.849Z,94800.47
2018-05-11T18:22:19.271Z,94801.27
2018-05-11T18:24:47.750Z,94810.98
2018-05-11T18:27:16.162Z,94814.07
2018-05-11T18:29:44.608Z,94811.76
2018-05-11T18:32:13.066Z,94809.53
2018-05-11T18:34:41.492Z,94815.39
2018-05-11T18:37:09.928Z,94817.25
2018-05-11T18:39:38.443Z,94815.79
2018-05-11T18:42:06.836Z,94816.31
2018-05-11T18:44:35.268Z,94815.31
2018-05-11T18:47:03.746Z,94817.59
2018-05-11T18:49:32.195Z,94823.09
2018-05-11T18:52:00.598Z,94827.81
2018-05-11T18:54:29.473Z,94839.09
2018-05-11T18:56:57.458Z,94835.74
2018-05-11T18:59:25.843Z,94847.59
2018-05-11T19:01:54.292Z,94844.09
2018-05-11T19:04:22.762Z,94849.45
2018-05-11T19:06:51.163Z,94849.23
2018-05-11T19:09:19.581Z,94849.77
2018-05-11T19:11:48.001Z,94829.12
2018-05-11T19:14:16.433Z,94846.73
2018-05-11T19:16:44.855Z,94856.31
2018-05-11T19:19:13.309Z,94857.03
2018-05-11T19:21:41.704Z,94858.54
2018-05-11T19:24:10.107Z,94853.58
2018-05-11T19:26:38.651Z,94859.28
2018-05-11T19:29:07.035Z,94860.28
2018-05-11T19:31:35.478Z,94849.53
2018-05-11T19:34:03.870Z,94778.17
2018-05-11T19:36:32.287Z,94852.97
2018-05-11T19:39:00.718Z,94850.95
2018-05-11T19:41:29.250Z,94856.95
2018-05-11T19:43:57.573Z,94861.75
2018-05-11T19:46:26.311Z,94835.31
2018-05-11T19:48:54.734Z,94850.76
2018-05-11T19:51:23.196Z,94845.36
2018-05-11T19:53:51.601Z,94848.25
2018-05-11T19:56:20.064Z,94845.27
2018-05-11T19:58:48.535Z,94843.30
2018-05-11T20:01:16.975Z,94847.22
2018-05-11T20:03:45.444Z,94848.93
2018-05-11T20:06:13.836Z,94856.55
2018-05-11T20:08:42.232Z,94860.91
2018-05-11T20:11:10.719Z,94860.81
2018-05-11T20:13:39.173Z,94858.66
2018-05-11T20:16:07.598Z,94856.05
2018-05-11T20:18:35.987Z,94859.31
2018-05-11T20:21:04.444Z,94851.20
2018-05-11T20:23:32.831Z,94855.02
2018-05-11T20:26:01.211Z,94844.59
2018-05-11T20:28:29.623Z,94843.63
2018-05-11T20:30:58.037Z,94832.19
2018-05-11T20:33:26.447Z,94849.77
2018-05-11T20:35:54.852Z,94837.86
2018-05-11T20:38:23.295Z,94842.64
2018-05-11T20:40:51.695Z,94836.66
2018-05-11T20:43:20.164Z,94845.52
2018-05-11T20:45:48.572Z,94849.91
2018-05-11T20:48:17.239Z,94847.05
2018-05-11T20:50:45.760Z,94851.35
2018-05-11T20:53:14.152Z,94850.53
2018-05-11T20:55:42.539Z,94858.70
2018-05-11T20:58:10.935Z,94862.71
2018-05-11T21:00:39.377Z,94861.08
2018-05-11T21:03:07.768Z,94848.58
2018-05-11T21:05:36.238Z,94847.73
2018-05-11T21:08:04.620Z,94845.89
2018-05-11T21:10:33.063Z,94853.33
2018-05-11T21:13:01.467Z,94850.46
2018-05-11T21:15:29.903Z,94882.61
2018-05-11T21:17:58.339Z,94875.49
2018-05-11T21:20:26.730Z,94875.08
2018-05-11T21:22:55.161Z,94872.19
2018-05-11T21:25:23.592Z,94881.58
2018-05-11T21:27:52.006Z,94869.47
2018-05-11T21:30:20.444Z,94878.89
2018-05-11T21:32:48.846Z,94873.78
2018-05-11T21:35:17.285Z,94869.52
2018-05-11T21:37:45.713Z,94879.56
2018-05-11T21:40:14.122Z,94884.16
2018-05-11T21:42:42.647Z,94883.57
2018-05-11T21:45:11.053Z,94892.25
2018-05-11T21:47:39.491Z,94886.55
2018-05-11T21:50:07.875Z,94890.55
2018-05-11T21:52:36.430Z,94890.29
2018-05-11T21:55:04.973Z,94886.30
2018-05-11T21:57:33.359Z,94888.09
2018-05-11T22:00:01.806Z,94891.27
2018-05-11T22:02:30.336Z,94896.22
2018-05-11T22:04:58.827Z,94884.91
2018-05-11T22:07:27.430Z,94889.98
2018-05-11T22:09:56.094Z,94893.65
2018-05-11T22:12:24.567Z,94882.70
2018-05-11T22:14:53.039Z,94882.06
2018-05-11T22:17:21.437Z,94869.60
2018-05-11T22:19:49.837Z,94883.28
2018-05-11T22:22:18.302Z,94873.70
2018-05-11T22:24:46.760Z,94845.53
2018-05-11T22:27:15.188Z,94885.62
2018-05-11T22:29:43.675Z,94889.75
2018-05-11T22:32:12.087Z,94888.91
2018-05-11T22:34:40.533Z,94886.91
2018-05-11T22:37:08.935Z,94884.03
2018-05-11T22:39:37.383Z,94881.94
2018-05-11T22:42:05.789Z,94877.74
2018-05-11T22:44:34.257Z,94878.02
2018-05-11T22:47:02.710Z,94867.78
2018-05-11T22:49:31.207Z,94863.45
2018-05-11T22:51:59.580Z,94861.81
2018-05-11T22:54:28.021Z,94869.92
2018-05-11T22:56:56.592Z,94862.68
2018-05-11T22:59:25.000Z,94875.63
2018-05-11T23:01:53.441Z,94880.95
2018-05-11T23:04:21.853Z,94855.97
2018-05-11T23:06:50.296Z,94874.55
2018-05-11T23:09:18.774Z,94871.78
2018-05-11T23:11:47.208Z,94869.22
2018-05-11T23:14:15.603Z,94865.64
2018-05-11T23:16:44.043Z,94868.55
2018-05-11T23:19:12.428Z,94869.44
2018-05-11T23:21:40.839Z,94872.95
2018-05-11T23:24:09.226Z,94869.70
2018-05-11T23:26:37.656Z,94868.55
2018-05-11T23:29:06.100Z,94863.48
2018-05-11T23:31:34.570Z,94861.24
2018-05-11T23:34:02.972Z,94863.10
2018-05-11T23:36:31.388Z,94864.70
2018-05-11T23:38:59.842Z,94862.81
2018-05-11T23:41:28.228Z,94864.95
2018-05-11T23:43:56.635Z,94867.23
2018-05-11T23:46:25.078Z,94867.05
2018-05-11T23:48:53.495Z,94866.82
2018-05-11T23:51:21.920Z,94866.28
2018-05-11T23:53:50.307Z,94874.23
2018-05-11T23:56:18.845Z,94866.59
2018-05-11T23:58:47.265Z,94873.42
